This is the latest recevied weather packets stored in our database for station/object DH3PAE-6. If no packets are shown the sender has not sent any weather packets the latest 10 day(s).
| Time | Temp. | Humidity | Pressure | Rain* | Wind** | Luminosity | Snow |
|---|---|---|---|---|---|---|---|
| 1777117837 | 15.56° C | 41% | 1018.9 hPa | 0 mm | - | 865 W/m² | - |
| 1777115417 | 15.56° C | 40% | 1019.3 hPa | 0 mm | - | 866 W/m² | - |
| 1777114837 | 15° C | 47% | 1019.2 hPa | 0 mm | - | 860 W/m² | - |
| 1777113617 | 14.44° C | 48% | 1019.1 hPa | 0 mm | - | 731 W/m² | - |
| 1777111220 | 15.56° C | 56% | 1019.5 hPa | 0 mm | - | 741 W/m² | - |
| 1777110620 | 14.44° C | 53% | 1019.3 hPa | 0 mm | - | 779 W/m² | - |
| 1777107020 | 13.33° C | 67% | 1019.2 hPa | 0 mm | - | 679 W/m² | - |
| 1777106417 | 12.22° C | 70% | 1019.3 hPa | 0 mm | - | 654 W/m² | - |
| 1777104637 | 11.11° C | 78% | 1019.2 hPa | 0 mm | - | 577 W/m² | - |
| 1777102240 | 8.89° C | 83% | 1019.1 hPa | 0 mm | - | 327 W/m² | - |
| 1777096220 | 0.56° C | 95% | 1018.9 hPa | 0 mm | - | 65 W/m² | - |
| 1777092040 | -0.56° C | 95% | 1018.7 hPa | 0 mm | - | 11 W/m² | - |
| 1777091417 | -1.11° C | 94% | 1018.6 hPa | 0 mm | - | 0 W/m² | - |
| 1777086637 | -0.56° C | 93% | 1018.7 hPa | 0 mm | - | 0 W/m² | - |
| 1777082416 | 0.56° C | 92% | 1018.9 hPa | 0 mm | - | 0 W/m² | - |
| 1777075216 | 1.67° C | 89% | 1019.7 hPa | 0 mm | - | 0 W/m² | - |
| 1777073416 | 1.67° C | 88% | 1019.9 hPa | 0 mm | - | 0 W/m² | - |
| 1777071059 | 2.22° C | 88% | 1020.1 hPa | 0 mm | - | 0 W/m² | - |
| 1777066239 | 3.33° C | 84% | 1019.9 hPa | 0 mm | - | 0 W/m² | - |
| 1777065638 | 3.89° C | 82% | 1019.8 hPa | 0 mm | - | 0 W/m² | - |
| 1777062618 | 5° C | 79% | 1020 hPa | 0 mm | - | 0 W/m² | - |
| 1777052537 | 13.89° C | 47% | 1019.8 hPa | 0 mm | - | 82 W/m² | - |
| 1777051338 | 14.44° C | 48% | 1020 hPa | 0 mm | - | 148 W/m² | - |
| 1777047137 | 15.56° C | 47% | 1020.4 hPa | 0 mm | - | 353 W/m² | - |
| 1777045937 | 15° C | 44% | 1020.6 hPa | 0 mm | - | 413 W/m² | - |
* Rain latest hour (hover to see other rain measurements)
** Current wind speed in m/s (hover to see current wind gust speed)